Time;durP1;ratioP1;P1;durP2;ratioP2;P2;SDS_P1;SDS_P2;PMS_P1;PMS_P2;Temp;Humidity;BMP_temperature;BMP_pressure;BME280_temperature;BME280_humidity;BME280_pressure;Samples;Min_cycle;Max_cycle;Signal;HPM_P1;HPM_P2
2024/04/03 00:01:59;;;;;;;2.10;1.30;;;256.40;2252.80;;;;;;5021004;28;20041;-71
2024/04/03 00:04:24;;;;;;;4.28;1.70;;;256.30;2252.80;;;;;;5023995;28;20096;-69
2024/04/03 00:06:51;;;;;;;3.50;1.20;;;256.30;2252.80;;;;;;5027993;28;20068;-70
2024/04/03 00:09:16;;;;;;;3.38;1.40;;;256.20;2252.80;;;;;;5028612;28;20075;-71
2024/04/03 00:11:42;;;;;;;4.05;1.95;;;256.30;2252.80;;;;;;5029263;28;20498;-73
2024/04/03 00:14:08;;;;;;;3.72;2.10;;;256.20;2252.80;;;;;;5025345;28;20632;-72
2024/04/03 00:16:33;;;;;;;4.30;2.42;;;256.10;2252.80;;;;;;5025238;28;20108;-70
2024/04/03 00:18:59;;;;;;;4.95;2.20;;;256.10;2252.80;;;;;;5025912;28;20069;-72
2024/04/03 00:21:24;;;;;;;4.63;2.40;;;256.00;2252.80;;;;;;5028801;28;20060;-69
2024/04/03 00:23:52;;;;;;;3.50;2.05;;;256.00;2252.80;;;;;;5029558;28;20485;-71
2024/04/03 00:26:18;;;;;;;2.97;1.67;;;256.00;2252.80;;;;;;5028828;28;20033;-71
2024/04/03 00:28:43;;;;;;;4.85;2.08;;;256.00;2252.80;;;;;;5026530;28;20563;-69
2024/04/03 00:31:09;;;;;;;2.72;1.80;;;256.10;2252.80;;;;;;5024201;28;20176;-70
2024/04/03 00:33:35;;;;;;;2.65;1.30;;;256.10;2252.80;;;;;;5018608;28;20033;-70
2024/04/03 00:36:00;;;;;;;1.58;1.02;;;256.10;2252.80;;;;;;5021312;28;20049;-71
2024/04/03 00:38:27;;;;;;;3.00;1.00;;;256.10;2252.80;;;;;;5028979;28;20025;-71
2024/04/03 00:40:53;;;;;;;1.60;0.80;;;256.10;2252.80;;;;;;5026012;28;20065;-70
2024/04/03 00:43:19;;;;;;;2.03;1.00;;;256.20;2252.80;;;;;;5023890;28;20025;-70
2024/04/03 00:45:45;;;;;;;2.45;0.90;;;256.20;2252.80;;;;;;5026541;28;20029;-70
2024/04/03 00:48:11;;;;;;;1.63;1.00;;;256.20;2252.80;;;;;;5023199;28;20053;-70
2024/04/03 00:50:36;;;;;;;1.48;0.90;;;256.10;2252.80;;;;;;5027674;28;20231;-70
2024/04/03 00:53:04;;;;;;;1.77;0.93;;;256.20;2252.80;;;;;;5018437;28;20125;-68
2024/04/03 00:55:31;;;;;;;2.13;1.10;;;256.10;2252.80;;;;;;5024120;28;20084;-70
2024/04/03 00:57:56;;;;;;;1.55;1.00;;;256.20;2252.80;;;;;;5023872;28;20037;-71
2024/04/03 01:00:22;;;;;;;1.75;0.90;;;256.10;2252.80;;;;;;5018546;28;20040;-71
2024/04/03 01:02:48;;;;;;;2.05;0.90;;;256.10;2252.80;;;;;;5019910;28;20092;-71
2024/04/03 01:05:15;;;;;;;1.75;1.05;;;256.10;2252.80;;;;;;5019670;28;20037;-70
2024/04/03 01:07:40;;;;;;;1.17;0.80;;;256.00;2252.80;;;;;;5019373;28;20405;-70
2024/04/03 01:10:06;;;;;;;2.72;0.77;;;256.00;2252.80;;;;;;5018302;28;20022;-70
2024/04/03 01:12:33;;;;;;;1.77;0.90;;;256.00;2252.80;;;;;;5023629;28;20033;-71
2024/04/03 01:14:59;;;;;;;3.03;0.90;;;231.30;2252.80;;;;;;5018288;28;20116;-71
2024/04/03 01:17:25;;;;;;;2.28;1.13;;;231.30;2252.80;;;;;;5015208;28;20176;-70
2024/04/03 01:19:51;;;;;;;1.33;0.90;;;231.20;2252.80;;;;;;5024774;28;20068;-71
2024/04/03 01:22:16;;;;;;;1.20;0.90;;;231.20;2252.80;;;;;;5022234;28;20144;-70
2024/04/03 01:24:42;;;;;;;2.10;1.00;;;231.10;2252.80;;;;;;5021931;28;20493;-69
2024/04/03 01:27:08;;;;;;;2.47;1.95;;;231.10;2252.80;;;;;;5022438;28;20124;-68
2024/04/03 01:29:38;;;;;;;3.65;2.17;;;231.10;2252.80;;;;;;5020651;28;20075;-72
2024/04/03 01:32:05;;;;;;;2.47;1.73;;;231.10;2252.80;;;;;;5015679;28;20049;-66
2024/04/03 01:34:32;;;;;;;3.58;1.92;;;231.10;2252.80;;;;;;5021695;28;20030;-70
2024/04/03 01:36:58;;;;;;;1.90;0.80;;;231.10;2252.80;;;;;;5025011;28;20045;-72
2024/04/03 01:39:25;;;;;;;1.33;0.60;;;231.10;2252.80;;;;;;5023263;28;20030;-69
2024/04/03 01:41:50;;;;;;;3.28;0.80;;;231.10;2252.80;;;;;;5026895;28;20042;-70
2024/04/03 01:44:19;;;;;;;5.15;3.80;;;231.00;2252.80;;;;;;5024541;28;20026;-71
2024/04/03 01:46:44;;;;;;;5.93;5.32;;;231.00;2252.80;;;;;;5020173;28;20359;-68
2024/04/03 01:49:10;;;;;;;2.42;1.88;;;231.00;2252.80;;;;;;5021531;28;20042;-70
2024/04/03 01:51:36;;;;;;;2.45;1.38;;;231.00;2252.80;;;;;;5018931;28;20533;-70
2024/04/03 01:54:01;;;;;;;2.17;1.35;;;230.90;2252.80;;;;;;5022070;28;20532;-69
2024/04/03 01:56:27;;;;;;;1.92;1.30;;;230.90;2252.80;;;;;;5020151;28;20175;-70
2024/04/03 01:58:53;;;;;;;3.28;1.85;;;230.90;2252.80;;;;;;5021725;28;20502;-72
2024/04/03 02:01:19;;;;;;;2.17;1.02;;;230.80;2252.80;;;;;;5022350;28;20098;-70
2024/04/03 02:03:44;;;;;;;2.08;1.40;;;230.80;2252.80;;;;;;5020977;28;20093;-69
2024/04/03 02:06:11;;;;;;;2.22;1.50;;;230.90;2252.80;;;;;;5021924;28;20049;-70
2024/04/03 02:08:40;;;;;;;1.77;0.90;;;230.90;2227.20;;;;;;5020150;28;20409;-69
2024/04/03 02:11:05;;;;;;;2.97;1.00;;;230.90;2252.80;;;;;;5022202;28;20434;-70
2024/04/03 02:13:31;;;;;;;3.03;0.95;;;230.80;2252.80;;;;;;5022855;28;20043;-71
2024/04/03 02:15:57;;;;;;;2.35;0.85;;;230.80;2252.80;;;;;;5020883;28;20894;-69
2024/04/03 02:18:23;;;;;;;1.85;0.90;;;230.80;2252.80;;;;;;5022696;28;20034;-70
2024/04/03 02:20:48;;;;;;;1.48;0.80;;;230.90;2252.80;;;;;;5021836;28;20493;-68
2024/04/03 02:23:15;;;;;;;2.28;0.80;;;230.80;2252.80;;;;;;5021934;28;20099;-72
2024/04/03 02:25:41;;;;;;;1.65;0.90;;;230.80;2252.80;;;;;;5022621;28;20552;-70
2024/04/03 02:28:07;;;;;;;1.23;0.80;;;230.80;2252.80;;;;;;5020225;28;20041;-68
2024/04/03 02:30:32;;;;;;;1.90;0.93;;;230.80;2252.80;;;;;;5021376;28;20516;-71
2024/04/03 02:32:58;;;;;;;3.20;0.90;;;230.80;2252.80;;;;;;5019851;28;20036;-71
2024/04/03 02:35:26;;;;;;;2.25;0.85;;;230.80;2252.80;;;;;;5019110;28;20441;-67
2024/04/03 02:37:52;;;;;;;1.08;0.70;;;230.80;2252.80;;;;;;5023467;28;20049;-71
2024/04/03 02:40:18;;;;;;;2.03;0.90;;;230.80;2252.80;;;;;;5032098;28;20038;-69
2024/04/03 02:42:43;;;;;;;1.73;0.82;;;230.80;2252.80;;;;;;5022940;28;20106;-71
2024/04/03 02:45:09;;;;;;;3.90;0.80;;;230.80;2252.80;;;;;;5019879;28;20482;-70
2024/04/03 02:47:36;;;;;;;2.55;1.30;;;230.80;2252.80;;;;;;5022665;28;20029;-71
2024/04/03 02:50:02;;;;;;;3.90;1.33;;;230.80;2252.80;;;;;;5017744;28;20053;-71
2024/04/03 02:52:27;;;;;;;2.60;1.40;;;230.80;2252.80;;;;;;5020858;28;20026;-72
2024/04/03 02:54:53;;;;;;;2.10;1.20;;;230.80;2252.80;;;;;;5023281;28;20033;-70
2024/04/03 02:57:19;;;;;;;3.28;1.23;;;230.70;2252.80;;;;;;5020604;28;20128;-71
2024/04/03 02:59:45;;;;;;;4.93;2.00;;;230.70;2252.80;;;;;;5020420;28;20033;-70
2024/04/03 03:02:11;;;;;;;5.20;2.10;;;230.60;2252.80;;;;;;5019177;28;20107;-71
2024/04/03 03:04:41;;;;;;;5.30;2.80;;;230.50;2252.80;;;;;;5021366;28;20021;-70
2024/04/03 03:07:09;;;;;;;3.53;2.15;;;230.50;2252.80;;;;;;5021762;28;20224;-71
2024/04/03 03:09:36;;;;;;;4.55;2.60;;;205.70;2252.80;;;;;;5021283;28;20069;-71
2024/04/03 03:12:05;;;;;;;4.72;2.40;;;230.40;2252.80;;;;;;5023213;28;20025;-71
2024/04/03 03:14:30;;;;;;;3.50;2.05;;;230.40;2252.80;;;;;;5019518;28;20036;-70
2024/04/03 03:16:57;;;;;;;3.10;1.73;;;230.40;2252.80;;;;;;5018572;28;20030;-70
2024/04/03 03:19:25;;;;;;;3.45;1.27;;;230.40;2252.80;;;;;;5027219;28;20025;-71
2024/04/03 03:21:51;;;;;;;1.63;0.90;;;230.40;2252.80;;;;;;5025198;28;20048;-72
2024/04/03 03:24:19;;;;;;;1.63;1.13;;;230.50;2252.80;;;;;;5029841;28;20025;-71
2024/04/03 03:26:45;;;;;;;2.10;1.10;;;230.50;2252.80;;;;;;5021527;28;20048;-72
2024/04/03 03:29:11;;;;;;;1.60;1.00;;;230.50;2252.80;;;;;;5028570;28;20025;-71
2024/04/03 03:31:36;;;;;;;2.20;1.10;;;230.50;2252.80;;;;;;5027292;28;20145;-71
2024/04/03 03:34:05;;;;;;;2.22;1.10;;;230.50;2252.80;;;;;;5028652;28;20071;-71
2024/04/03 03:36:30;;;;;;;2.60;1.10;;;230.50;2252.80;;;;;;5031952;28;20148;-71
2024/04/03 03:38:59;;;;;;;2.65;1.50;;;230.50;2252.80;;;;;;5027905;28;20029;-70
2024/04/03 03:41:25;;;;;;;4.20;2.55;;;230.50;2252.80;;;;;;5025415;28;20738;-71
2024/04/03 03:43:50;;;;;;;3.80;2.50;;;230.40;2252.80;;;;;;5027779;28;20040;-71
2024/04/03 03:46:18;;;;;;;4.93;3.15;;;230.40;2252.80;;;;;;5028384;28;20481;-71
2024/04/03 03:54:14;;;;;;;4.97;2.83;;;205.70;2252.80;;;;;;5032072;28;20079;-72
2024/04/03 03:56:40;;;;;;;3.88;2.65;;;205.70;2252.80;;;;;;5029221;28;20029;-71
2024/04/03 03:59:09;;;;;;;5.75;2.90;;;205.60;2252.80;;;;;;5032079;28;20433;-70
2024/04/03 04:01:34;;;;;;;6.40;2.60;;;205.50;2252.80;;;;;;5017662;28;20025;-71
2024/04/03 04:04:00;;;;;;;3.15;1.75;;;205.40;2252.80;;;;;;5018820;28;20044;-71
2024/04/03 04:06:26;;;;;;;5.43;2.42;;;205.30;2252.80;;;;;;5026314;28;20060;-71
2024/04/03 04:08:55;;;;;;;6.65;3.10;;;205.30;2252.80;;;;;;5029147;28;20112;-71
2024/04/03 04:11:20;;;;;;;4.30;2.50;;;205.40;2252.80;;;;;;5023159;28;20020;-70
2024/04/03 04:13:48;;;;;;;5.57;2.45;;;205.40;2252.80;;;;;;5028362;28;20025;-70
2024/04/03 04:16:14;;;;;;;2.60;1.60;;;205.30;2252.80;;;;;;5030925;28;20018;-70
2024/04/03 04:18:40;;;;;;;3.30;2.10;;;205.40;2252.80;;;;;;5013700;28;20056;-70
2024/04/03 04:21:06;;;;;;;2.85;1.83;;;205.40;2252.80;;;;;;5017760;28;20128;-70
2024/04/03 04:23:32;;;;;;;3.53;2.00;;;205.50;2252.80;;;;;;5018402;28;20026;-70
2024/04/03 04:26:02;;;;;;;7.72;2.35;;;205.50;2252.80;;;;;;5030239;28;20028;-70
2024/04/03 04:28:28;;;;;;;5.53;2.65;;;205.50;2252.80;;;;;;5030761;28;20021;-70
2024/04/03 04:30:57;;;;;;;4.50;2.80;;;205.60;2252.80;;;;;;5030123;28;20024;-69
2024/04/03 04:33:23;;;;;;;4.15;2.45;;;205.60;2124.80;;;;;;5029003;28;20029;-70
2024/04/03 04:35:56;;;;;;;7.03;2.85;;;205.60;2099.20;;;;;;5028708;28;20029;-70
2024/04/03 04:38:23;;;;;;;5.80;3.03;;;205.70;2252.80;;;;;;5024402;28;20021;-71
2024/04/03 04:41:00;;;;;;;9.00;3.83;;;205.70;2252.80;;;;;;5029783;28;20033;-70
2024/04/03 04:43:30;;;;;;;4.90;2.70;;;205.70;2252.80;;;;;;5024535;28;20029;-70
2024/04/03 04:46:04;;;;;;;7.35;2.40;;;230.40;2252.80;;;;;;5020990;28;20049;-70
2024/04/03 04:48:31;;;;;;;4.05;2.35;;;230.40;2252.80;;;;;;5028886;28;20478;-70
2024/04/03 04:51:01;;;;;;;4.57;2.75;;;230.40;2252.80;;;;;;5026340;28;20033;-69
2024/04/03 04:53:28;;;;;;;5.68;2.58;;;230.40;2252.80;;;;;;5010074;28;20025;-69
2024/04/03 04:56:01;;;;;;;8.70;3.40;;;230.50;2252.80;;;;;;5015039;28;20057;-70
2024/04/03 04:58:27;;;;;;;13.45;3.45;;;230.50;2252.80;;;;;;5024871;28;20024;-70
2024/04/03 05:01:03;;;;;;;10.15;3.13;;;230.60;2252.80;;;;;;5027489;28;20033;-70
2024/04/03 05:03:28;;;;;;;13.88;3.55;;;230.70;2252.80;;;;;;5027216;28;20037;-70
2024/04/03 05:05:54;;;;;;;6.30;2.65;;;230.80;2201.60;;;;;;5026703;28;20030;-70
2024/04/03 05:08:20;;;;;;;9.55;2.83;;;230.90;2252.80;;;;;;5011276;28;20053;-70
2024/04/03 05:10:50;;;;;;;8.00;3.20;;;231.20;2252.80;;;;;;5014302;28;20470;-70
2024/04/03 05:13:18;;;;;;;6.03;3.33;;;231.20;2252.80;;;;;;5027647;28;20060;-70
2024/04/03 05:15:45;;;;;;;6.70;4.25;;;256.00;2252.80;;;;;;5019236;28;20037;-69
2024/04/03 05:18:12;;;;;;;7.72;4.38;;;256.20;2252.80;;;;;;5025125;28;20095;-71
2024/04/03 05:20:37;;;;;;;6.05;4.00;;;256.30;2252.80;;;;;;5026484;28;20471;-70
2024/04/03 05:23:05;;;;;;;8.95;4.38;;;256.30;2252.80;;;;;;5024913;28;20098;-70
2024/04/03 05:25:30;;;;;;;9.10;4.38;;;256.80;2252.80;;;;;;5027613;28;20029;-70
2024/04/03 05:27:56;;;;;;;9.02;4.80;;;256.70;2252.80;;;;;;5028361;28;20362;-70
2024/04/03 05:30:22;;;;;;;6.35;4.30;;;256.70;2252.80;;;;;;5025492;28;20047;-70
2024/04/03 05:32:48;;;;;;;8.98;4.53;;;281.60;2278.40;;;;;;5016497;28;20022;-70
2024/04/03 05:35:15;;;;;;;7.30;5.07;;;281.90;2278.40;;;;;;5013818;28;20139;-70
2024/04/03 05:37:43;;;;;;;7.10;4.35;;;281.80;2278.40;;;;;;5018030;28;20045;-70
2024/04/03 05:40:09;;;;;;;11.13;5.40;;;281.80;2278.40;;;;;;5016899;28;20030;-70
2024/04/03 05:42:35;;;;;;;9.48;4.70;;;281.90;2278.40;;;;;;5017524;28;20033;-70
2024/04/03 05:45:01;;;;;;;9.00;3.47;;;282.00;2278.40;;;;;;5018858;28;20038;-70
2024/04/03 05:47:28;;;;;;;10.35;3.22;;;282.10;2278.40;;;;;;5014929;28;20029;-70
2024/04/03 05:49:54;;;;;;;5.47;2.60;;;282.30;2278.40;;;;;;5016429;28;20025;-70
2024/04/03 05:52:23;;;;;;;5.22;1.80;;;282.50;2278.40;;;;;;5012211;28;20037;-70
2024/04/03 05:54:49;;;;;;;5.30;2.67;;;282.50;2278.40;;;;;;5019384;28;20026;-70
2024/04/03 05:57:19;;;;;;;5.68;3.00;;;307.20;2304.00;;;;;;5018319;28;20360;-70
2024/04/03 05:59:45;;;;;;;6.88;2.80;;;282.50;2278.40;;;;;;5020262;28;20025;-71
2024/04/03 06:02:12;;;;;;;7.97;2.50;;;307.20;2304.00;;;;;;5020187;28;20029;-71
2024/04/03 06:04:38;;;;;;;8.68;2.67;;;307.40;2304.00;;;;;;5031259;28;20022;-70
2024/04/03 06:07:05;;;;;;;5.07;2.47;;;307.70;2304.00;;;;;;5027703;28;20030;-70
2024/04/03 06:09:31;;;;;;;7.07;2.53;;;307.70;2304.00;;;;;;5020265;28;20442;-72
2024/04/03 06:11:57;;;;;;;6.25;2.72;;;307.80;2304.00;;;;;;5022886;28;20116;-71
2024/04/03 06:14:26;;;;;;;4.93;2.38;;;307.70;2304.00;;;;;;5022323;28;20103;-71
2024/04/03 06:16:52;;;;;;;8.07;2.72;;;;;;;;;;5020159;28;20445;-72
2024/04/03 06:19:18;;;;;;;20.88;8.90;;;308.00;2304.00;;;;;;5017786;28;20137;-71
2024/04/03 06:21:44;;;;;;;16.63;6.80;;;;;;;;;;5023506;28;20789;-70
2024/04/03 06:24:10;;;;;;;8.63;4.22;;;332.80;2329.60;;;;;;5030548;28;20740;-72
2024/04/03 06:26:36;;;;;;;12.00;5.60;;;308.10;2304.00;;;;;;5012485;28;20033;-72
2024/04/03 06:29:04;;;;;;;8.05;4.57;;;358.90;2329.60;;;;;;5015007;28;20073;-71
2024/04/03 06:31:31;;;;;;;11.75;5.80;;;563.50;1792.00;;;;;;5021396;28;20036;-71
2024/04/03 06:33:59;;;;;;;7.68;4.32;;;615.30;1510.40;;;;;;5021623;28;20037;-72
2024/04/03 06:36:25;;;;;;;9.05;4.68;;;;;;;;;;5026282;28;20028;-72
2024/04/03 06:38:51;;;;;;;8.23;4.38;;;743.20;1203.20;;;;;;5022402;28;20036;-72
2024/04/03 06:41:17;;;;;;;6.20;5.00;;;742.90;1177.60;;;;;;5021120;28;20022;-71
2024/04/03 06:43:43;;;;;;;6.30;4.80;;;;;;;;;;5021104;28;20092;-70
2024/04/03 06:46:09;;;;;;;9.98;4.13;;;;;;;;;;5024233;28;20029;-73
2024/04/03 06:48:35;;;;;;;4.50;2.65;;;;;;;;;;5026469;28;20083;-72
2024/04/03 06:51:03;;;;;;;4.22;2.72;;;;;;;;;;5020788;28;20030;-72
2024/04/03 06:53:29;;;;;;;5.90;2.33;;;692.00;1177.60;;;;;;5024471;28;20038;-72
2024/04/03 06:56:02;;;;;;;5.75;3.03;;;742.40;1177.60;;;;;;5026383;28;20390;-70
2024/04/03 06:58:38;;;;;;;6.03;2.88;;;;;;;;;;5019382;28;20092;-70
2024/04/03 07:01:04;;;;;;;6.10;4.13;;;;;;;;;;5023231;28;20537;-71
2024/04/03 07:03:31;;;;;;;6.65;3.80;;;742.60;1152.00;;;;;;5018691;28;20536;-71
2024/04/03 07:05:57;;;;;;;5.50;3.30;;;;;;;;;;5023941;28;20033;-71
2024/04/03 07:08:23;;;;;;;4.70;2.63;;;768.50;1075.20;;;;;;5025103;28;20050;-71
2024/04/03 07:10:48;;;;;;;5.60;2.90;;;742.70;1126.40;;;;;;5026705;28;20357;-71
2024/04/03 07:13:14;;;;;;;4.20;1.95;;;742.50;1126.40;;;;;;5020888;28;20039;-71
2024/04/03 07:15:40;;;;;;;5.03;2.80;;;717.00;1126.40;;;;;;5018215;28;20038;-71
2024/04/03 07:18:06;;;;;;;2.80;1.65;;;640.50;1203.20;;;;;;5022024;28;20339;-70
2024/04/03 07:20:32;;;;;;;5.30;1.83;;;589.50;1305.60;;;;;;5020858;28;20030;-71
2024/04/03 07:22:59;;;;;;;4.25;1.40;;;538.40;1408.00;;;;;;5023564;28;20037;-71
2024/04/03 07:25:26;;;;;;;5.53;2.10;;;512.70;1484.80;;;;;;5016718;28;20021;-70
2024/04/03 07:27:54;;;;;;;4.45;2.03;;;487.10;1561.60;;;;;;5020232;28;20037;-72
2024/04/03 07:30:20;;;;;;;5.03;2.35;;;461.70;1638.40;;;;;;5019823;28;20021;-71
2024/04/03 07:32:46;;;;;;;3.53;1.30;;;461.30;1689.60;;;;;;5021869;28;20077;-70
2024/04/03 07:35:12;;;;;;;7.90;3.28;;;461.00;1689.60;;;;;;5021152;28;20025;-70
2024/04/03 07:37:40;;;;;;;6.15;3.03;;;436.10;1689.60;;;;;;5015228;28;20022;-70
2024/04/03 07:40:10;;;;;;;3.97;1.50;;;436.10;1740.80;;;;;;5021330;28;20433;-70
2024/04/03 07:42:40;;;;;;;5.60;2.17;;;461.00;1766.40;;;;;;5028353;28;20048;-70
2024/04/03 07:45:09;;;;;;;11.32;3.08;;;461.40;1740.80;;;;;;5023773;28;20022;-70
2024/04/03 07:47:36;;;;;;;7.53;2.60;;;461.00;1740.80;;;;;;5024117;28;20021;-70
2024/04/03 07:50:06;;;;;;;10.15;3.72;;;461.20;1715.20;;;;;;5020804;28;20398;-70
2024/04/03 07:52:37;;;;;;;5.65;1.77;;;461.50;1715.20;;;;;;5026145;28;20100;-70
2024/04/03 07:55:11;;;;;;;3.90;1.88;;;461.10;1740.80;;;;;;5023726;28;20079;-71
2024/04/03 07:57:37;;;;;;;3.58;1.05;;;460.80;1766.40;;;;;;5023969;28;20049;-71
2024/04/03 08:00:04;;;;;;;6.35;2.10;;;436.00;1715.20;;;;;;5021296;28;20075;-71
2024/04/03 08:02:43;;;;;;;4.18;1.50;;;461.00;1740.80;;;;;;5020251;28;20487;-71
2024/04/03 08:05:10;;;;;;;2.85;1.10;;;461.60;1740.80;;;;;;5021883;28;20056;-71
2024/04/03 08:07:36;;;;;;;6.22;1.30;;;486.50;1664.00;;;;;;5020794;28;20045;-71
2024/04/03 08:10:03;;;;;;;4.55;1.50;;;486.60;1664.00;;;;;;5020475;28;20034;-71
2024/04/03 08:12:29;;;;;;;3.33;1.63;;;486.70;1689.60;;;;;;5020531;28;20076;-70
2024/04/03 08:15:00;;;;;;;3.47;1.50;;;486.90;1664.00;;;;;;5016952;28;20049;-71
2024/04/03 08:17:26;;;;;;;3.78;1.65;;;486.80;1664.00;;;;;;5017067;28;20026;-71
2024/04/03 08:19:53;;;;;;;3.47;1.45;;;487.10;1664.00;;;;;;5018015;28;20092;-70
2024/04/03 08:22:22;;;;;;;4.00;1.40;;;486.60;1664.00;;;;;;5017415;28;20048;-72
2024/04/03 08:24:51;;;;;;;5.20;2.17;;;486.60;1664.00;;;;;;5011141;28;20087;-71
2024/04/03 08:27:18;;;;;;;5.30;1.70;;;486.70;1689.60;;;;;;5024807;28;20025;-70
2024/04/03 08:29:48;;;;;;;4.97;1.40;;;486.50;1638.40;;;;;;5025757;28;20021;-71
2024/04/03 08:32:14;;;;;;;3.58;1.40;;;486.50;1689.60;;;;;;5024161;28;20037;-70
2024/04/03 08:34:39;;;;;;;2.40;1.20;;;461.60;1715.20;;;;;;5025164;28;20029;-71
2024/04/03 08:37:06;;;;;;;3.83;1.15;;;461.70;1740.80;;;;;;5028838;28;20026;-70
2024/04/03 08:39:33;;;;;;;1.98;0.98;;;461.70;1740.80;;;;;;5028963;28;20022;-71
2024/04/03 08:42:00;;;;;;;3.65;1.10;;;486.50;1715.20;;;;;;5029804;28;20037;-72
2024/04/03 08:44:31;;;;;;;2.47;1.20;;;461.70;1715.20;;;;;;5029517;28;20017;-69
2024/04/03 08:47:01;;;;;;;3.42;0.98;;;486.60;1715.20;;;;;;5029712;28;20025;-70
2024/04/03 08:49:37;;;;;;;3.88;1.10;;;486.70;1689.60;;;;;;5025735;28;20029;-70
2024/04/03 08:52:11;;;;;;;2.90;1.23;;;486.70;1689.60;;;;;;5023893;28;20040;-70
2024/04/03 08:54:42;;;;;;;5.10;1.53;;;487.20;1664.00;;;;;;5027203;28;20021;-71
2024/04/03 08:57:08;;;;;;;3.85;1.20;;;512.00;1612.80;;;;;;5026457;28;20788;-70
2024/04/03 08:59:38;;;;;;;2.58;0.98;;;512.20;1587.20;;;;;;5018909;28;20025;-68
2024/04/03 09:02:04;;;;;;;3.85;1.10;;;512.00;1587.20;;;;;;5023174;28;20034;-69
2024/04/03 09:04:31;;;;;;;12.05;4.53;;;487.30;1587.20;;;;;;5025237;28;20025;-68
2024/04/03 09:06:57;;;;;;;14.73;5.85;;;512.10;1587.20;;;;;;5027333;28;20032;-70
2024/04/03 09:09:25;;;;;;;4.72;1.73;;;512.10;1587.20;;;;;;5028743;28;20711;-70
2024/04/03 09:11:59;;;;;;;16.13;5.85;;;487.20;1612.80;;;;;;5027030;28;20013;-69
2024/04/03 09:14:25;;;;;;;2.22;1.00;;;512.00;1612.80;;;;;;5027051;28;20108;-69
2024/04/03 09:16:58;;;;;;;3.92;1.08;;;487.30;1561.60;;;;;;5028208;28;20057;-70
2024/04/03 09:19:24;;;;;;;4.18;1.00;;;487.20;1587.20;;;;;;5028276;28;20458;-69
2024/04/03 09:21:50;;;;;;;5.50;1.33;;;487.20;1587.20;;;;;;5027573;28;20033;-68
2024/04/03 09:24:16;;;;;;;4.18;1.30;;;512.10;1587.20;;;;;;5027022;28;20026;-70
2024/04/03 09:26:44;;;;;;;3.20;1.13;;;512.20;1587.20;;;;;;5027637;28;20022;-69
2024/04/03 09:29:12;;;;;;;4.28;1.08;;;487.20;1587.20;;;;;;5028028;28;20025;-70
2024/04/03 09:31:37;;;;;;;4.90;1.40;;;512.00;1612.80;;;;;;5023272;28;20057;-70
2024/04/03 09:34:04;;;;;;;4.45;1.15;;;512.70;1638.40;;;;;;5025758;28;20056;-71
2024/04/03 09:36:30;;;;;;;4.20;1.00;;;512.20;1612.80;;;;;;5034009;28;20026;-67
2024/04/03 09:38:56;;;;;;;2.67;0.90;;;487.20;1561.60;;;;;;5033908;28;20517;-71
2024/04/03 09:41:22;;;;;;;4.05;1.17;;;486.90;1561.60;;;;;;5017101;28;20493;-68
2024/04/03 09:43:50;;;;;;;2.67;1.10;;;512.00;1561.60;;;;;;5025755;28;20390;-69
2024/04/03 09:46:19;;;;;;;3.28;1.38;;;487.20;1561.60;;;;;;5021208;28;20045;-68
2024/04/03 09:48:50;;;;;;;4.35;1.55;;;512.20;1536.00;;;;;;5024059;28;20660;-68
2024/04/03 09:51:17;;;;;;;4.18;1.23;;;512.00;1561.60;;;;;;5020695;28;20033;-69
2024/04/03 09:53:44;;;;;;;3.50;1.30;;;487.20;1561.60;;;;;;5027743;28;20092;-68
2024/04/03 09:56:15;;;;;;;5.15;1.20;;;512.10;1587.20;;;;;;5034347;28;20026;-70
2024/04/03 09:58:41;;;;;;;5.80;1.33;;;512.80;1561.60;;;;;;5015228;28;20454;-69
2024/04/03 10:01:08;;;;;;;2.97;1.20;;;512.80;1561.60;;;;;;5033581;28;20060;-70
2024/04/03 10:03:38;;;;;;;4.43;1.35;;;512.80;1510.40;;;;;;5031678;28;20026;-69
2024/04/03 10:06:11;;;;;;;5.90;1.30;;;512.60;1510.40;;;;;;5031075;28;20030;-69
2024/04/03 10:08:48;;;;;;;3.80;1.38;;;512.60;1510.40;;;;;;5028751;28;20556;-73
2024/04/03 10:11:16;;;;;;;4.65;1.85;;;512.50;1484.80;;;;;;5028967;28;20041;-68
2024/04/03 10:13:44;;;;;;;7.35;1.60;;;512.50;1510.40;;;;;;5028977;28;20038;-70
2024/04/03 10:16:14;;;;;;;3.97;1.13;;;512.80;1510.40;;;;;;5030327;28;20122;-68
2024/04/03 10:18:42;;;;;;;3.25;1.33;;;537.60;1536.00;;;;;;5031347;28;20091;-68
2024/04/03 10:21:12;;;;;;;3.10;1.27;;;537.80;1561.60;;;;;;5016381;28;20064;-69
2024/04/03 10:23:48;;;;;;;4.90;1.20;;;537.70;1536.00;;;;;;5011143;28;20387;-70
2024/04/03 10:26:18;;;;;;;2.67;1.20;;;537.80;1536.00;;;;;;5011207;28;20029;-70
2024/04/03 10:28:45;;;;;;;9.07;1.20;;;538.10;1510.40;;;;;;5011519;28;20033;-68
2024/04/03 10:31:20;;;;;;;4.05;1.50;;;538.30;1510.40;;;;;;5011349;28;20101;-69
2024/04/03 10:33:50;;;;;;;3.22;1.40;;;538.40;1484.80;;;;;;5011370;28;20445;-69
2024/04/03 10:36:18;;;;;;;3.53;1.50;;;537.90;1484.80;;;;;;5010867;28;20049;-70
2024/04/03 10:38:45;;;;;;;5.38;1.48;;;538.10;1484.80;;;;;;5016808;28;20028;-69
2024/04/03 10:41:10;;;;;;;5.05;1.58;;;537.70;1536.00;;;;;;5030588;28;20025;-68
2024/04/03 10:43:37;;;;;;;4.13;1.27;;;538.00;1510.40;;;;;;5030300;28;20367;-68
2024/04/03 10:46:02;;;;;;;3.90;1.17;;;538.40;1484.80;;;;;;5029530;28;20104;-67
2024/04/03 10:48:28;;;;;;;5.43;1.67;;;563.30;1536.00;;;;;;5030617;28;20418;-72
2024/04/03 10:50:54;;;;;;;5.57;1.20;;;563.50;1510.40;;;;;;5023928;28;20562;-70
2024/04/03 10:53:21;;;;;;;3.13;1.25;;;563.50;1459.20;;;;;;5027883;28;20026;-70
2024/04/03 10:55:47;;;;;;;6.05;1.50;;;563.50;1484.80;;;;;;5022724;28;20128;-69
2024/04/03 10:58:13;;;;;;;2.90;1.02;;;563.80;1459.20;;;;;;5020907;28;20103;-69
2024/04/03 11:00:45;;;;;;;4.85;1.20;;;563.30;1459.20;;;;;;5024071;28;20030;-71
2024/04/03 11:03:11;;;;;;;4.20;1.20;;;538.40;1484.80;;;;;;5015227;28;20148;-69
2024/04/03 11:05:37;;;;;;;4.55;1.23;;;538.50;1484.80;;;;;;5029776;28;20163;-69
2024/04/03 11:08:05;;;;;;;5.15;1.20;;;538.00;1612.80;;;;;;5026920;28;20046;-70
2024/04/03 11:10:31;;;;;;;5.85;1.40;;;538.30;1536.00;;;;;;5031435;28;20020;-69
2024/04/03 11:13:11;;;;;;;5.93;1.70;;;537.90;1561.60;;;;;;5021756;28;20044;-72
2024/04/03 11:15:37;;;;;;;5.68;1.10;;;537.90;1510.40;;;;;;5028961;28;20501;-69
2024/04/03 11:18:04;;;;;;;3.58;0.90;;;537.90;1510.40;;;;;;5031069;28;20064;-71
2024/04/03 11:20:31;;;;;;;4.70;1.17;;;538.00;1510.40;;;;;;5020759;28;20029;-71
2024/04/03 11:22:58;;;;;;;2.97;0.95;;;538.20;1510.40;;;;;;5014992;28;20163;-70
2024/04/03 11:25:28;;;;;;;3.33;1.00;;;538.20;1484.80;;;;;;5029892;28;20087;-68
2024/04/03 11:27:56;;;;;;;3.38;1.20;;;563.30;1510.40;;;;;;5030132;28;20026;-71
2024/04/03 11:30:23;;;;;;;3.65;1.13;;;538.20;1484.80;;;;;;5030596;28;20031;-70
2024/04/03 11:32:50;;;;;;;4.03;1.00;;;538.50;1459.20;;;;;;5030315;28;20017;-69
2024/04/03 11:35:15;;;;;;;3.20;1.00;;;538.40;1459.20;;;;;;5030118;28;20549;-70
2024/04/03 11:37:41;;;;;;;4.40;1.40;;;538.30;1459.20;;;;;;5023393;28;20028;-70
2024/04/03 11:40:07;;;;;;;4.97;1.58;;;538.50;1459.20;;;;;;5024670;28;20482;-71
2024/04/03 11:42:37;;;;;;;6.13;2.20;;;538.40;1459.20;;;;;;5011673;28;20033;-68
2024/04/03 11:45:04;;;;;;;5.30;1.67;;;538.40;1459.20;;;;;;5019237;28;20018;-71
2024/04/03 11:47:34;;;;;;;2.15;1.00;;;538.00;1459.20;;;;;;5030721;28;20032;-70
2024/04/03 11:50:00;;;;;;;3.20;0.90;;;537.60;1484.80;;;;;;5029800;28;20018;-70
2024/04/03 11:52:26;;;;;;;5.18;1.10;;;537.80;1484.80;;;;;;5020146;28;20205;-71
2024/04/03 11:54:52;;;;;;;2.08;0.80;;;537.60;1484.80;;;;;;5031259;28;20108;-71
2024/04/03 11:57:18;;;;;;;3.03;0.90;;;512.70;1484.80;;;;;;5030227;28;20537;-71
2024/04/03 11:59:43;;;;;;;2.90;1.00;;;512.90;1484.80;;;;;;5011035;28;20036;-80
2024/04/03 12:02:09;;;;;;;3.40;1.00;;;537.60;1510.40;;;;;;5019271;28;20073;-70
2024/04/03 12:04:35;;;;;;;2.05;0.90;;;537.60;1536.00;;;;;;5012645;28;20100;-71
2024/04/03 12:07:01;;;;;;;4.65;1.25;;;537.70;1536.00;;;;;;5010693;28;20026;-74
2024/04/03 12:09:27;;;;;;;4.78;1.20;;;537.70;1561.60;;;;;;5012145;28;20477;-70
2024/04/03 12:11:53;;;;;;;4.82;1.10;;;538.00;1536.00;;;;;;5029106;28;20112;-68
2024/04/03 12:14:18;;;;;;;3.05;0.90;;;537.80;1536.00;;;;;;5025098;28;20430;-71
2024/04/03 12:16:45;;;;;;;3.83;1.13;;;537.90;1536.00;;;;;;5028775;28;20031;-68
2024/04/03 12:19:15;;;;;;;4.30;1.30;;;537.70;1561.60;;;;;;5028454;28;20039;-70
2024/04/03 12:21:42;;;;;;;4.35;1.25;;;537.80;1536.00;;;;;;5029859;28;20049;-68
2024/04/03 12:24:11;;;;;;;4.65;1.10;;;538.00;1536.00;;;;;;5029133;28;20029;-70
2024/04/03 12:26:39;;;;;;;2.88;1.10;;;537.90;1536.00;;;;;;5027213;28;20018;-70